Time;durP1;ratioP1;P1;durP2;ratioP2;P2;SDS_P1;SDS_P2;PMS_P1;PMS_P2;Temp;Humidity;BMP_temperature;BMP_pressure;BME280_temperature;BME280_humidity;BME280_pressure;Samples;Min_cycle;Max_cycle;Signal;HPM_P1;HPM_P2
2022/03/27 00:02:08;;;;;;;15.40;5.18;;;18.50;50.00;;;;;;6219534;23;20173;-84
2022/03/27 00:04:35;;;;;;;18.95;4.93;;;18.40;49.70;;;;;;6219471;23;20141;-84
2022/03/27 00:07:00;;;;;;;13.93;4.63;;;18.40;50.20;;;;;;6194572;23;20133;-86
2022/03/27 00:09:26;;;;;;;12.23;5.03;;;18.40;49.70;;;;;;6219652;23;20213;-85
2022/03/27 00:11:52;;;;;;;13.25;4.63;;;18.40;50.20;;;;;;6219222;23;20618;-85
2022/03/27 00:14:18;;;;;;;11.93;4.30;;;18.40;50.00;;;;;;6246499;23;20276;-85
2022/03/27 00:16:43;;;;;;;14.20;4.93;;;18.30;50.00;;;;;;6245952;23;20176;-85
2022/03/27 00:19:09;;;;;;;19.25;5.05;;;18.30;50.00;;;;;;6219395;23;20133;-85
2022/03/27 00:21:35;;;;;;;14.98;5.10;;;18.40;50.20;;;;;;6169919;23;20172;-85
2022/03/27 00:24:01;;;;;;;11.75;4.40;;;18.40;50.10;;;;;;6219198;23;20473;-85
2022/03/27 00:26:27;;;;;;;11.75;4.25;;;18.40;50.10;;;;;;6219287;23;20271;-85
2022/03/27 00:28:52;;;;;;;13.07;4.60;;;18.30;50.20;;;;;;6194045;23;20165;-84
2022/03/27 00:31:18;;;;;;;14.88;4.93;;;18.40;49.70;;;;;;6194011;23;20152;-85
2022/03/27 00:33:44;;;;;;;13.85;4.63;;;18.30;50.00;;;;;;6194289;23;20548;-85
2022/03/27 00:36:13;;;;;;;11.85;4.88;;;18.40;50.10;;;;;;6219023;23;20546;-84
2022/03/27 00:38:39;;;;;;;13.07;4.50;;;18.30;50.20;;;;;;6195455;23;20150;-85
2022/03/27 00:41:05;;;;;;;12.57;4.60;;;18.20;50.10;;;;;;6219155;23;20138;-85
2022/03/27 00:43:31;;;;;;;13.75;4.55;;;18.30;50.10;;;;;;6218624;23;20232;-85
2022/03/27 00:45:57;;;;;;;14.35;4.65;;;18.30;50.00;;;;;;6219159;23;20227;-85
2022/03/27 00:48:22;;;;;;;12.95;4.60;;;18.30;50.30;;;;;;6219150;23;20133;-85
2022/03/27 00:50:48;;;;;;;12.20;4.45;;;18.30;50.30;;;;;;6218990;23;20476;-85
2022/03/27 00:53:15;;;;;;;11.57;4.60;;;18.30;50.20;;;;;;6169280;23;20160;-85
2022/03/27 00:55:41;;;;;;;9.57;4.70;;;18.30;50.30;;;;;;6218951;23;20144;-85
2022/03/27 00:58:07;;;;;;;11.68;4.43;;;18.30;50.40;;;;;;6194173;23;20468;-85
2022/03/27 01:00:42;;;;;;;16.75;4.88;;;18.20;50.20;;;;;;6169071;23;20225;-85
2022/03/27 01:03:11;;;;;;;13.45;4.63;;;18.30;50.20;;;;;;6219695;23;20176;-85
2022/03/27 01:05:38;;;;;;;13.52;4.22;;;18.30;50.30;;;;;;6195096;23;20191;-85
2022/03/27 01:08:06;;;;;;;11.05;4.38;;;18.30;50.30;;;;;;6194087;23;20126;-85
2022/03/27 01:10:31;;;;;;;14.20;4.50;;;18.20;50.30;;;;;;6193722;23;20233;-84
2022/03/27 01:12:57;;;;;;;12.73;4.65;;;18.20;50.30;;;;;;6193911;23;20134;-85
2022/03/27 01:15:27;;;;;;;14.85;4.68;;;18.30;50.20;;;;;;6193548;23;20200;-84
2022/03/27 01:17:52;;;;;;;12.48;4.68;;;18.30;50.20;;;;;;6169429;23;20153;-85
2022/03/27 01:20:35;;;;;;;14.15;5.18;;;18.30;50.30;;;;;;6193635;23;20152;-85
2022/03/27 01:23:01;;;;;;;12.25;4.68;;;18.20;50.30;;;;;;6218921;23;20500;-85
2022/03/27 01:25:27;;;;;;;11.65;4.57;;;18.20;50.10;;;;;;6168911;23;20199;-85
2022/03/27 01:27:53;;;;;;;8.52;4.03;;;18.20;50.10;;;;;;6170018;23;20579;-85
2022/03/27 01:30:19;;;;;;;16.15;5.15;;;18.20;50.20;;;;;;6193637;23;20130;-84
2022/03/27 01:32:50;;;;;;;15.68;4.97;;;18.30;50.50;;;;;;6194096;23;20148;-84
2022/03/27 01:35:19;;;;;;;12.48;4.82;;;18.20;50.50;;;;;;6122384;23;20176;-85
2022/03/27 01:37:47;;;;;;;9.52;4.47;;;18.20;50.50;;;;;;6144124;23;20156;-85
2022/03/27 01:40:16;;;;;;;11.43;4.35;;;18.20;50.40;;;;;;6119136;23;20161;-84
2022/03/27 01:42:41;;;;;;;9.50;4.40;;;18.20;50.30;;;;;;6143321;23;20188;-84
2022/03/27 01:45:07;;;;;;;11.60;4.47;;;18.20;50.40;;;;;;6193570;23;20144;-85
2022/03/27 01:47:33;;;;;;;12.13;4.25;;;18.20;50.40;;;;;;6218694;23;20164;-84
2022/03/27 01:50:01;;;;;;;9.07;4.35;;;18.20;50.50;;;;;;6245579;23;20157;-85
2022/03/27 01:52:26;;;;;;;12.05;4.13;;;18.10;50.40;;;;;;6169078;23;20153;-84
2022/03/27 01:54:52;;;;;;;11.77;4.13;;;18.20;50.30;;;;;;6218959;23;20140;-85
2022/03/27 01:57:17;;;;;;;11.20;4.40;;;18.20;50.50;;;;;;6193231;23;20146;-84
2022/03/27 01:59:43;;;;;;;14.23;4.95;;;18.20;50.40;;;;;;6218535;23;20457;-85
2022/03/27 02:02:09;;;;;;;13.02;4.47;;;18.20;50.60;;;;;;6218665;23;20169;-85
2022/03/27 02:04:35;;;;;;;11.18;4.57;;;18.10;50.50;;;;;;6218699;23;20183;-84
2022/03/27 02:07:01;;;;;;;12.05;4.65;;;18.20;50.50;;;;;;6193574;23;20134;-86
2022/03/27 02:09:27;;;;;;;12.00;4.45;;;18.20;50.60;;;;;;6193488;23;20536;-86
2022/03/27 02:11:54;;;;;;;11.95;4.55;;;18.20;50.70;;;;;;6168555;23;20157;-85
2022/03/27 02:14:19;;;;;;;11.63;4.40;;;18.20;50.50;;;;;;6167764;23;20506;-85
2022/03/27 02:16:46;;;;;;;14.30;4.32;;;18.10;50.60;;;;;;6245029;23;20569;-85
2022/03/27 02:19:13;;;;;;;11.45;4.15;;;18.10;50.60;;;;;;6142963;23;20751;-85
2022/03/27 02:21:39;;;;;;;11.23;4.47;;;18.10;50.60;;;;;;6143556;23;20187;-84
2022/03/27 02:24:05;;;;;;;12.05;4.22;;;18.10;50.50;;;;;;6195663;23;20149;-85
2022/03/27 02:26:31;;;;;;;12.55;4.65;;;18.10;50.50;;;;;;6195634;23;20220;-85
2022/03/27 02:28:57;;;;;;;10.63;4.55;;;18.10;50.60;;;;;;6220551;23;20184;-85
2022/03/27 02:31:23;;;;;;;9.93;4.25;;;18.10;50.50;;;;;;6220949;23;20262;-84
2022/03/27 02:33:48;;;;;;;11.00;4.55;;;18.10;50.50;;;;;;6220724;23;20150;-85
2022/03/27 02:36:15;;;;;;;10.82;4.30;;;18.10;50.60;;;;;;6247656;23;20545;-84
2022/03/27 02:38:40;;;;;;;10.80;4.28;;;18.10;50.70;;;;;;6221095;23;20230;-84
2022/03/27 02:41:06;;;;;;;12.15;4.72;;;18.10;50.70;;;;;;6171122;23;20575;-84
2022/03/27 02:43:32;;;;;;;8.65;3.88;;;18.10;50.70;;;;;;6220405;23;20648;-84
2022/03/27 02:45:58;;;;;;;10.05;4.03;;;18.10;50.70;;;;;;6195811;23;20130;-85
2022/03/27 02:48:24;;;;;;;12.02;4.45;;;18.10;50.70;;;;;;6195303;23;20671;-85
2022/03/27 02:50:51;;;;;;;9.82;3.88;;;18.10;50.60;;;;;;6246971;23;20134;-86
2022/03/27 02:53:16;;;;;;;13.60;4.70;;;18.10;50.70;;;;;;6145404;23;20153;-84
2022/03/27 02:55:42;;;;;;;13.32;4.75;;;18.00;51.20;;;;;;6220375;23;20191;-85
2022/03/27 02:58:08;;;;;;;13.90;4.57;;;18.10;50.70;;;;;;6220184;23;20172;-84
2022/03/27 03:00:35;;;;;;;9.27;3.97;;;18.10;50.60;;;;;;6171435;23;20141;-85
2022/03/27 03:03:04;;;;;;;11.50;3.85;;;18.10;50.60;;;;;;6219934;23;20216;-85
2022/03/27 03:05:33;;;;;;;9.75;4.13;;;18.10;50.70;;;;;;6145309;23;20153;-86
2022/03/27 03:08:02;;;;;;;12.07;4.32;;;18.10;50.70;;;;;;6144530;23;20156;-85
2022/03/27 03:10:30;;;;;;;9.95;4.13;;;18.10;50.70;;;;;;6144980;23;20157;-85
2022/03/27 03:12:59;;;;;;;10.95;4.30;;;18.10;50.60;;;;;;6145176;23;20164;-85
2022/03/27 03:15:26;;;;;;;12.98;4.80;;;18.10;50.60;;;;;;6119881;23;20201;-85
2022/03/27 03:17:51;;;;;;;13.50;4.47;;;18.00;50.60;;;;;;6195240;23;20172;-84
2022/03/27 03:20:19;;;;;;;12.43;4.32;;;18.10;50.70;;;;;;6194911;23;20130;-85
2022/03/27 03:22:48;;;;;;;11.27;4.28;;;18.10;50.70;;;;;;6195269;23;20177;-85
2022/03/27 03:25:16;;;;;;;10.55;4.10;;;18.10;50.70;;;;;;6169399;23;20154;-85
2022/03/27 03:27:41;;;;;;;11.07;4.00;;;18.10;50.70;;;;;;6144908;23;20156;-84
2022/03/27 03:30:10;;;;;;;13.15;4.40;;;18.00;50.80;;;;;;6219837;23;20212;-84
2022/03/27 03:32:36;;;;;;;11.10;4.18;;;18.00;50.70;;;;;;6145387;23;20228;-84
2022/03/27 03:35:03;;;;;;;10.93;4.40;;;18.00;50.60;;;;;;6194444;23;20592;-84
2022/03/27 03:37:29;;;;;;;8.10;3.70;;;18.00;50.50;;;;;;6194931;23;20527;-84
2022/03/27 03:39:55;;;;;;;11.73;4.35;;;18.00;50.70;;;;;;6246827;23;20209;-85
2022/03/27 03:42:20;;;;;;;12.45;4.45;;;18.00;50.70;;;;;;6194674;23;20165;-84
2022/03/27 03:44:46;;;;;;;11.40;4.30;;;18.00;50.60;;;;;;6219765;23;20134;-84
2022/03/27 03:47:12;;;;;;;8.93;4.15;;;18.00;50.60;;;;;;6219879;23;20129;-85
2022/03/27 03:49:38;;;;;;;10.07;3.65;;;18.00;50.70;;;;;;6219815;23;20137;-85
2022/03/27 03:52:04;;;;;;;11.32;4.22;;;18.00;50.70;;;;;;6219855;23;20141;-83
2022/03/27 03:54:31;;;;;;;11.07;4.57;;;18.00;50.70;;;;;;6194955;23;20137;-84
2022/03/27 03:56:56;;;;;;;10.65;4.40;;;18.00;50.70;;;;;;6143919;23;20160;-85
2022/03/27 03:59:23;;;;;;;11.02;4.43;;;18.00;50.70;;;;;;6246405;23;20422;-84
2022/03/27 04:01:49;;;;;;;8.63;3.92;;;18.00;50.50;;;;;;6219408;23;20169;-84
2022/03/27 04:04:15;;;;;;;10.75;4.25;;;18.00;50.70;;;;;;6246541;23;20138;-85
2022/03/27 04:06:41;;;;;;;11.05;4.28;;;18.00;50.80;;;;;;6219606;23;20181;-84
2022/03/27 04:09:07;;;;;;;12.75;4.47;;;18.00;50.80;;;;;;6219458;23;20149;-85
2022/03/27 04:11:33;;;;;;;9.80;3.78;;;18.00;50.70;;;;;;6219690;23;20207;-84
2022/03/27 04:13:59;;;;;;;12.13;4.47;;;18.10;50.80;;;;;;6245903;23;20189;-84
2022/03/27 04:16:25;;;;;;;12.68;4.43;;;18.00;50.80;;;;;;6219193;23;20160;-85
2022/03/27 04:18:50;;;;;;;10.05;3.90;;;18.00;50.80;;;;;;6219522;23;20161;-84
2022/03/27 04:21:16;;;;;;;10.38;4.30;;;18.00;51.00;;;;;;6219230;23;20213;-84
2022/03/27 04:23:43;;;;;;;9.30;4.15;;;18.00;50.90;;;;;;6219509;23;20133;-85
2022/03/27 04:26:08;;;;;;;10.43;3.90;;;18.00;51.00;;;;;;6170003;23;20137;-85
2022/03/27 04:28:34;;;;;;;10.95;3.92;;;18.00;50.70;;;;;;6219008;23;20176;-85
2022/03/27 04:31:00;;;;;;;13.18;4.35;;;18.10;50.80;;;;;;6219384;23;20145;-84
2022/03/27 04:33:26;;;;;;;9.05;3.80;;;18.00;50.70;;;;;;6219185;23;20684;-85
2022/03/27 04:35:52;;;;;;;10.27;3.70;;;18.00;50.80;;;;;;6218866;23;20165;-85
2022/03/27 04:38:18;;;;;;;12.45;4.60;;;18.00;50.90;;;;;;6219463;23;20133;-84
2022/03/27 04:40:44;;;;;;;11.82;3.90;;;18.00;51.40;;;;;;6245914;23;20134;-84
2022/03/27 04:43:09;;;;;;;10.50;4.25;;;17.90;50.50;;;;;;6219038;23;20172;-84
2022/03/27 04:45:35;;;;;;;11.30;3.90;;;18.00;50.70;;;;;;6219005;23;20137;-85
2022/03/27 04:48:01;;;;;;;7.95;3.88;;;18.00;50.80;;;;;;6219093;23;20204;-84
2022/03/27 04:50:27;;;;;;;9.25;4.20;;;18.00;50.80;;;;;;6219065;23;20142;-84
2022/03/27 04:52:53;;;;;;;12.02;4.30;;;18.00;50.80;;;;;;6219056;23;20484;-84
2022/03/27 04:55:19;;;;;;;9.35;4.28;;;18.00;50.70;;;;;;6218908;23;20472;-84
2022/03/27 04:57:45;;;;;;;9.65;3.90;;;18.00;50.80;;;;;;6245900;23;20618;-84
2022/03/27 05:00:14;;;;;;;10.70;4.03;;;18.00;50.80;;;;;;6218962;23;20134;-86
2022/03/27 05:02:41;;;;;;;9.27;3.53;;;18.00;50.80;;;;;;6219221;23;20185;-86
2022/03/27 05:05:08;;;;;;;10.75;3.88;;;18.00;50.70;;;;;;6219034;23;20172;-84
2022/03/27 05:07:36;;;;;;;8.77;3.65;;;18.00;50.70;;;;;;6218914;23;20615;-84
2022/03/27 05:10:03;;;;;;;10.93;4.35;;;18.10;50.80;;;;;;6218628;23;20147;-85
2022/03/27 05:12:29;;;;;;;9.68;4.18;;;18.00;50.30;;;;;;6219334;23;20148;-84
2022/03/27 05:14:55;;;;;;;13.13;4.28;;;18.10;50.40;;;;;;6218568;23;20193;-84
2022/03/27 05:17:20;;;;;;;8.02;3.88;;;18.10;50.40;;;;;;6219226;23;20565;-84
2022/03/27 05:19:46;;;;;;;9.57;3.75;;;18.10;50.20;;;;;;6245318;23;20542;-84
2022/03/27 05:22:13;;;;;;;8.57;3.85;;;18.10;50.60;;;;;;6193482;23;20176;-84
2022/03/27 05:24:39;;;;;;;10.07;3.97;;;18.00;50.50;;;;;;6219407;23;20540;-83
2022/03/27 05:27:04;;;;;;;10.70;4.30;;;18.00;50.40;;;;;;6218188;23;20599;-84
2022/03/27 05:29:31;;;;;;;9.18;3.85;;;18.10;50.50;;;;;;6193646;23;20134;-84
2022/03/27 05:31:58;;;;;;;10.65;3.95;;;18.10;50.70;;;;;;6218504;23;20611;-84
2022/03/27 05:34:24;;;;;;;11.68;4.32;;;18.00;50.40;;;;;;6218493;23;20156;-84
2022/03/27 05:36:50;;;;;;;9.13;3.47;;;18.10;50.70;;;;;;6218776;23;20129;-84
2022/03/27 05:39:17;;;;;;;10.52;4.00;;;18.10;50.40;;;;;;6218457;23;20148;-83
2022/03/27 05:41:43;;;;;;;10.35;3.58;;;18.10;50.50;;;;;;6218779;23;20600;-84
2022/03/27 05:44:09;;;;;;;9.20;4.10;;;18.10;50.40;;;;;;6193599;23;20402;-84
2022/03/27 05:46:34;;;;;;;9.77;4.03;;;18.10;50.60;;;;;;6245143;23;20213;-84
2022/03/27 05:49:00;;;;;;;7.90;3.72;;;18.00;51.40;;;;;;6218531;23;20189;-84
2022/03/27 05:51:26;;;;;;;9.35;4.35;;;18.10;50.60;;;;;;6218870;23;20213;-84
2022/03/27 05:53:52;;;;;;;8.70;3.50;;;18.10;50.70;;;;;;6218825;23;20189;-84
2022/03/27 05:56:17;;;;;;;9.68;3.58;;;18.10;50.60;;;;;;6243452;23;20137;-84
2022/03/27 05:58:44;;;;;;;9.05;3.83;;;18.10;50.40;;;;;;6218413;23;20168;-85
2022/03/27 06:01:11;;;;;;;8.80;3.85;;;18.10;50.60;;;;;;6245284;23;20133;-84
2022/03/27 06:03:38;;;;;;;7.65;3.70;;;18.10;50.50;;;;;;6143138;23;20288;-84
2022/03/27 06:06:05;;;;;;;10.35;3.85;;;18.10;50.50;;;;;;6143442;23;20520;-85
2022/03/27 06:08:32;;;;;;;10.93;3.88;;;18.10;50.30;;;;;;6167410;23;20153;-87
2022/03/27 06:10:59;;;;;;;7.00;3.58;;;18.10;50.30;;;;;;6143134;23;20225;-85
2022/03/27 06:13:24;;;;;;;7.85;4.18;;;18.10;50.40;;;;;;6167619;23;20169;-84
2022/03/27 06:15:51;;;;;;;8.85;3.53;;;18.10;50.30;;;;;;6218475;23;20601;-84
2022/03/27 06:18:17;;;;;;;8.38;3.83;;;18.10;50.40;;;;;;6143008;23;20242;-84
2022/03/27 06:20:44;;;;;;;8.93;3.83;;;18.20;50.30;;;;;;6244968;23;20140;-83
2022/03/27 06:23:10;;;;;;;12.52;3.65;;;18.20;50.20;;;;;;6218638;23;20181;-83
2022/03/27 06:25:38;;;;;;;7.65;3.40;;;18.20;50.10;;;;;;6244866;23;20562;-86
2022/03/27 06:28:04;;;;;;;10.27;3.85;;;18.20;50.20;;;;;;6218763;23;20248;-87
2022/03/27 06:30:30;;;;;;;9.40;3.92;;;18.20;50.00;;;;;;6193941;23;20433;-85
2022/03/27 06:32:56;;;;;;;8.73;3.63;;;18.30;49.90;;;;;;6246399;23;20183;-86
2022/03/27 06:35:23;;;;;;;8.30;3.70;;;18.20;49.70;;;;;;6221445;23;20130;-86
2022/03/27 06:37:49;;;;;;;8.80;3.45;;;18.20;50.00;;;;;;6219877;23;20141;-88
2022/03/27 06:40:15;;;;;;;6.88;3.60;;;18.20;50.00;;;;;;6223339;23;20137;-86
2022/03/27 06:42:43;;;;;;;8.15;3.63;;;18.30;49.90;;;;;;6221660;23;20216;-85
2022/03/27 06:45:14;;;;;;;10.18;3.67;;;18.40;49.90;;;;;;6223935;23;20558;-87
2022/03/27 06:47:44;;;;;;;10.75;3.92;;;18.40;49.60;;;;;;6147901;23;20149;-88
2022/03/27 06:50:11;;;;;;;7.43;3.53;;;18.50;49.80;;;;;;6148345;23;20436;-88
2022/03/27 06:52:39;;;;;;;7.78;3.70;;;18.50;49.90;;;;;;6223613;23;20451;-89
2022/03/27 06:55:09;;;;;;;11.40;3.58;;;18.40;49.60;;;;;;6221796;23;20206;-88
2022/03/27 06:57:36;;;;;;;9.00;3.97;;;18.60;49.90;;;;;;6148864;23;20261;-86
2022/03/27 07:05:34;;;;;;;9.40;3.78;;;18.80;49.30;;;;;;6227749;23;20487;-86
2022/03/27 07:08:00;;;;;;;10.63;3.67;;;18.90;48.90;;;;;;6174985;23;20161;-83
2022/03/27 07:10:26;;;;;;;7.32;3.15;;;18.90;48.50;;;;;;6249941;23;20256;-86
2022/03/27 07:12:52;;;;;;;8.65;3.53;;;18.90;48.10;;;;;;6225176;23;20169;-84
2022/03/27 07:15:21;;;;;;;8.88;3.60;;;18.90;47.70;;;;;;6250210;23;20192;-84
2022/03/27 07:17:48;;;;;;;10.88;3.47;;;18.90;47.90;;;;;;6224636;23;20149;-86
2022/03/27 07:20:19;;;;;;;10.98;3.58;;;19.00;48.40;;;;;;6224678;23;20283;-82
2022/03/27 07:22:45;;;;;;;9.05;3.50;;;19.00;48.10;;;;;;6223908;23;20181;-83
2022/03/27 07:25:12;;;;;;;7.15;3.53;;;19.10;47.80;;;;;;6249987;23;20140;-84
2022/03/27 07:27:38;;;;;;;12.20;3.67;;;19.20;47.80;;;;;;6225212;23;20133;-85
2022/03/27 07:30:06;;;;;;;10.50;3.42;;;19.10;47.70;;;;;;6225947;23;20144;-85
2022/03/27 07:32:33;;;;;;;11.93;3.13;;;19.10;49.00;;;;;;6225770;23;20213;-84
2022/03/27 07:35:03;;;;;;;16.95;4.00;;;19.20;48.90;;;;;;6173658;23;20149;-83
2022/03/27 07:37:34;;;;;;;10.50;3.42;;;19.20;48.50;;;;;;6151054;23;20172;-85
2022/03/27 07:40:08;;;;;;;10.80;4.00;;;19.30;48.90;;;;;;6173010;23;20172;-85
2022/03/27 07:42:39;;;;;;;12.00;3.65;;;19.30;49.10;;;;;;6130100;23;20235;-85
2022/03/27 07:45:09;;;;;;;9.55;2.85;;;19.30;48.40;;;;;;6151464;23;20615;-85
2022/03/27 07:47:46;;;;;;;11.13;3.63;;;19.30;47.80;;;;;;6150618;23;20180;-88
2022/03/27 07:50:24;;;;;;;8.63;3.30;;;19.30;48.90;;;;;;6134896;23;20145;-87
2022/03/27 07:52:51;;;;;;;12.32;3.65;;;19.20;48.50;;;;;;6227231;23;20156;-85
2022/03/27 07:55:18;;;;;;;13.75;3.75;;;19.20;48.40;;;;;;6226941;23;20181;-85
2022/03/27 07:57:52;;;;;;;14.35;3.78;;;19.20;48.40;;;;;;6224975;23;20125;-85
2022/03/27 08:00:27;;;;;;;8.45;3.45;;;19.20;48.40;;;;;;6152645;23;20225;-86
2022/03/27 08:02:57;;;;;;;11.55;3.42;;;19.30;47.60;;;;;;6175422;23;20188;-85
2022/03/27 08:05:23;;;;;;;9.35;3.00;;;19.30;48.30;;;;;;6171939;23;20201;-85
2022/03/27 08:07:49;;;;;;;7.65;3.00;;;19.20;48.50;;;;;;6223447;23;20171;-84
2022/03/27 08:10:19;;;;;;;14.65;3.47;;;19.20;47.80;;;;;;6222032;23;20151;-85
2022/03/27 08:12:46;;;;;;;10.43;2.85;;;19.20;48.50;;;;;;6146085;23;20175;-86
2022/03/27 08:15:12;;;;;;;10.02;3.20;;;19.20;48.60;;;;;;6222551;23;20185;-85
2022/03/27 08:17:38;;;;;;;12.27;3.40;;;19.30;48.40;;;;;;6220860;23;20141;-84
2022/03/27 08:20:04;;;;;;;17.48;3.72;;;19.30;49.00;;;;;;6222388;23;20130;-85
2022/03/27 08:22:34;;;;;;;17.13;3.15;;;19.30;49.30;;;;;;6222034;23;20266;-87
2022/03/27 08:25:00;;;;;;;9.05;3.10;;;19.30;48.30;;;;;;6147582;23;20244;-84
2022/03/27 08:27:27;;;;;;;11.00;3.55;;;19.30;48.90;;;;;;6221893;23;20178;-85
2022/03/27 08:29:53;;;;;;;7.53;3.20;;;19.30;48.90;;;;;;6225253;23;20536;-85
2022/03/27 08:32:19;;;;;;;9.13;3.00;;;19.20;49.10;;;;;;6225148;23;20145;-86
2022/03/27 08:34:46;;;;;;;9.02;2.90;;;19.30;49.10;;;;;;6221002;23;20137;-85
2022/03/27 08:37:13;;;;;;;10.00;3.35;;;19.30;49.30;;;;;;6220618;23;20268;-85
2022/03/27 08:39:39;;;;;;;12.70;3.40;;;19.30;49.60;;;;;;6220423;23;20149;-86
2022/03/27 08:42:06;;;;;;;9.18;3.15;;;19.30;49.80;;;;;;6221042;23;20166;-84
2022/03/27 08:44:37;;;;;;;14.25;3.40;;;19.40;49.90;;;;;;6220469;23;20133;-88
2022/03/27 08:47:06;;;;;;;13.23;3.30;;;19.40;49.80;;;;;;6171572;23;20172;-85
2022/03/27 08:49:40;;;;;;;9.80;3.25;;;19.30;49.20;;;;;;6225236;23;20134;-87
2022/03/27 08:52:35;;;;;;;13.98;3.33;;;19.30;49.30;;;;;;6173236;23;20201;-86
2022/03/27 08:55:08;;;;;;;10.95;3.30;;;19.30;49.90;;;;;;6202150;23;20141;-87
2022/03/27 08:57:50;;;;;;;9.48;3.35;;;19.30;49.60;;;;;;6195038;23;20209;-88
2022/03/27 09:00:24;;;;;;;10.25;3.28;;;19.30;49.80;;;;;;6223445;23;20125;-84
2022/03/27 09:02:58;;;;;;;25.75;3.88;;;19.40;49.70;;;;;;6218940;23;20172;-83
2022/03/27 09:05:24;;;;;;;12.02;3.38;;;19.40;50.10;;;;;;6224042;23;20157;-85
2022/03/27 09:07:56;;;;;;;19.33;3.63;;;19.40;50.80;;;;;;6217776;23;20126;-86
2022/03/27 09:10:27;;;;;;;22.30;4.55;;;19.40;50.40;;;;;;6169966;23;20157;-87
2022/03/27 09:12:57;;;;;;;16.45;3.50;;;19.40;49.70;;;;;;6219892;23;20180;-84
2022/03/27 09:16:03;;;;;;;15.35;3.30;;;19.40;49.50;;;;;;6151318;23;20247;-85
2022/03/27 09:18:52;;;;;;;18.50;3.47;;;19.40;49.90;;;;;;6144922;23;20149;-85
2022/03/27 09:21:20;;;;;;;12.73;3.40;;;19.40;50.10;;;;;;6222129;23;20152;-84
2022/03/27 09:23:52;;;;;;;11.32;3.00;;;19.50;50.40;;;;;;6221184;23;20532;-84
2022/03/27 09:26:22;;;;;;;9.85;2.95;;;19.50;48.70;;;;;;6221432;23;20217;-87
2022/03/27 09:28:54;;;;;;;9.35;3.00;;;19.50;48.00;;;;;;6175333;23;20202;-87
2022/03/27 09:31:23;;;;;;;14.18;3.28;;;19.50;49.50;;;;;;6198533;23;20186;-86
2022/03/27 09:34:01;;;;;;;9.32;2.90;;;19.50;49.40;;;;;;6222895;23;20164;-86
2022/03/27 09:36:33;;;;;;;14.18;3.00;;;19.50;48.10;;;;;;6173308;23;20149;-85
2022/03/27 09:39:04;;;;;;;12.38;3.60;;;19.50;48.80;;;;;;6224542;23;20218;-87
2022/03/27 09:41:34;;;;;;;10.73;3.15;;;19.60;49.70;;;;;;6222972;23;20178;-85
2022/03/27 09:44:08;;;;;;;13.85;3.03;;;19.70;49.40;;;;;;6198359;23;20203;-83
2022/03/27 09:46:49;;;;;;;11.52;3.08;;;19.60;48.60;;;;;;6222710;23;20193;-84
2022/03/27 09:49:25;;;;;;;9.77;3.28;;;19.70;47.30;;;;;;6197001;23;20141;-84
2022/03/27 09:51:58;;;;;;;9.43;2.95;;;19.60;48.30;;;;;;6222998;23;20191;-85
2022/03/27 09:54:25;;;;;;;19.55;3.45;;;19.60;48.00;;;;;;6197699;23;20169;-85
2022/03/27 09:56:55;;;;;;;8.77;3.00;;;19.50;48.90;;;;;;6249534;23;20195;-86
2022/03/27 09:59:30;;;;;;;8.20;2.85;;;19.40;48.30;;;;;;6171858;23;20146;-86
2022/03/27 10:02:19;;;;;;;8.75;3.10;;;19.40;47.80;;;;;;6172840;23;20183;-86
2022/03/27 10:04:54;;;;;;;10.32;3.45;;;19.40;48.10;;;;;;6225173;23;20544;-86
2022/03/27 10:07:34;;;;;;;11.50;2.67;;;19.40;47.70;;;;;;6225018;23;20143;-86
2022/03/27 10:10:00;;;;;;;10.52;2.90;;;19.50;48.00;;;;;;6177175;23;20149;-87
2022/03/27 10:12:28;;;;;;;7.35;2.70;;;19.40;48.00;;;;;;6222962;23;20161;-85
2022/03/27 10:14:59;;;;;;;13.23;3.42;;;19.50;47.60;;;;;;6221538;23;20628;-86
2022/03/27 10:17:27;;;;;;;8.50;2.47;;;19.50;48.00;;;;;;6246676;23;20125;-84
2022/03/27 10:20:05;;;;;;;12.02;2.92;;;19.40;47.30;;;;;;6221142;23;20152;-85
2022/03/27 10:22:31;;;;;;;17.77;3.28;;;19.50;47.30;;;;;;6152293;23;20176;-87
2022/03/27 10:25:04;;;;;;;10.13;3.05;;;19.30;47.40;;;;;;6221599;23;20141;-86
2022/03/27 10:27:30;;;;;;;12.43;3.00;;;19.40;47.20;;;;;;6122885;23;20153;-86
2022/03/27 10:30:00;;;;;;;9.02;2.65;;;19.40;46.70;;;;;;6221791;23;20133;-85
2022/03/27 10:32:26;;;;;;;7.18;2.65;;;19.40;46.10;;;;;;6219743;23;20138;-83
2022/03/27 10:35:20;;;;;;;8.18;2.67;;;19.40;46.20;;;;;;6246163;23;20539;-85
2022/03/27 10:38:10;;;;;;;8.27;2.35;;;19.40;46.80;;;;;;6245922;23;20191;-85
2022/03/27 10:41:31;;;;;;;;;;;;;;;;;;;;;
2022/03/27 10:44:51;;;;;;;9.88;2.83;;;19.50;45.90;;;;;;6240182;23;20220;-85
2022/03/27 10:47:54;;;;;;;8.68;2.75;;;19.50;45.70;;;;;;6240962;23;20187;-86
2022/03/27 10:50:28;;;;;;;10.07;2.90;;;19.50;45.90;;;;;;6200733;23;20207;-85
2022/03/27 10:52:57;;;;;;;7.97;3.00;;;19.60;46.00;;;;;;6145383;23;20180;-85
2022/03/27 10:55:42;;;;;;;10.60;3.00;;;19.60;46.80;;;;;;6244938;23;20357;-85
2022/03/27 10:58:25;;;;;;;7.30;2.20;;;19.60;45.90;;;;;;6248537;23;20138;-88
2022/03/27 11:00:55;;;;;;;10.65;2.58;;;19.60;44.60;;;;;;6222785;23;20134;-86
2022/03/27 11:03:51;;;;;;;11.07;2.92;;;19.60;46.10;;;;;;6147433;23;20188;-87
2022/03/27 11:06:23;;;;;;;7.78;2.55;;;19.60;44.70;;;;;;6252526;23;20224;-88
2022/03/27 11:08:50;;;;;;;8.35;2.60;;;19.70;44.90;;;;;;6198700;23;20145;-86
2022/03/27 11:11:53;;;;;;;6.95;2.60;;;19.80;45.40;;;;;;6223371;23;20172;-87
2022/03/27 11:14:23;;;;;;;9.00;2.30;;;19.70;45.90;;;;;;6228351;23;20192;-87
2022/03/27 11:17:12;;;;;;;8.02;2.50;;;19.70;45.70;;;;;;6174452;23;20145;-88
2022/03/27 11:19:46;;;;;;;7.60;3.03;;;19.70;45.40;;;;;;6225284;23;20144;-85
2022/03/27 11:22:52;;;;;;;16.17;2.80;;;19.70;46.20;;;;;;6223388;23;20212;-84
2022/03/27 11:25:35;;;;;;;6.00;2.30;;;19.70;45.80;;;;;;6250229;23;20199;-84
2022/03/27 11:28:13;;;;;;;5.80;2.35;;;19.70;46.20;;;;;;6224745;23;20589;-86
2022/03/27 11:31:00;;;;;;;6.72;2.72;;;19.70;46.20;;;;;;6223835;23;20141;-86
2022/03/27 11:33:29;;;;;;;8.52;2.63;;;19.70;46.00;;;;;;6227912;23;20652;-83
2022/03/27 11:36:16;;;;;;;6.60;2.25;;;19.70;45.60;;;;;;6223556;23;20596;-84
2022/03/27 11:38:53;;;;;;;6.15;1.90;;;19.70;44.40;;;;;;6224865;23;20138;-85
2022/03/27 11:41:48;;;;;;;8.68;2.25;;;19.70;44.70;;;;;;6246033;23;20524;-84
2022/03/27 11:45:06;;;;;;;5.28;2.15;;;19.80;43.90;;;;;;6222377;23;20187;-83
2022/03/27 11:47:20;;;;;;;5.97;2.20;;;19.90;44.00;;;;;;6228377;23;20169;-85
2022/03/27 11:49:47;;;;;;;6.90;2.25;;;19.90;43.40;;;;;;6147395;23;20208;-84
2022/03/27 11:52:25;;;;;;;6.47;2.58;;;19.90;45.00;;;;;;6197363;23;20146;-85
2022/03/27 11:55:05;;;;;;;3.75;1.80;;;20.00;46.50;;;;;;6124827;23;20183;-84
2022/03/27 11:58:05;;;;;;;10.30;2.38;;;20.00;44.40;;;;;;6223145;23;20185;-82
2022/03/27 12:00:35;;;;;;;7.93;2.40;;;20.10;45.00;;;;;;6245858;23;20209;-84
2022/03/27 12:03:02;;;;;;;9.65;2.88;;;20.10;45.90;;;;;;6222030;23;20612;-85
2022/03/27 12:05:33;;;;;;;7.10;2.38;;;20.10;45.80;;;;;;6222436;23;20193;-86
2022/03/27 12:08:03;;;;;;;5.85;2.35;;;20.00;45.20;;;;;;6223182;23;20228;-85
2022/03/27 12:10:39;;;;;;;10.88;2.40;;;19.90;44.80;;;;;;6149666;23;20149;-85
2022/03/27 12:13:08;;;;;;;10.32;2.28;;;19.90;45.10;;;;;;6196108;23;20438;-85
2022/03/27 12:15:49;;;;;;;8.50;2.25;;;19.80;45.10;;;;;;6219856;23;20263;-82
2022/03/27 12:18:35;;;;;;;7.97;2.28;;;19.90;45.40;;;;;;6087611;23;20466;-84
2022/03/27 12:21:09;;;;;;;7.97;2.30;;;19.90;44.80;;;;;;6058381;23;20202;-86
2022/03/27 12:23:40;;;;;;;9.63;2.30;;;19.90;44.80;;;;;;6134749;23;20194;-84
2022/03/27 12:31:31;;;;;;;5.10;2.10;;;19.90;44.70;;;;;;6132049;23;20135;-84
2022/03/27 12:34:01;;;;;;;7.68;2.15;;;19.80;44.40;;;;;;6105025;23;20267;-86
2022/03/27 12:36:30;;;;;;;6.28;1.92;;;19.90;44.40;;;;;;6082469;23;20155;-84
2022/03/27 12:39:00;;;;;;;7.93;2.22;;;20.00;43.60;;;;;;6104054;23;20151;-85
2022/03/27 12:41:39;;;;;;;6.30;2.22;;;19.90;43.60;;;;;;6078632;23;20155;-86
2022/03/27 12:44:08;;;;;;;5.28;2.10;;;19.90;43.60;;;;;;6130915;23;20206;-85
2022/03/27 12:46:34;;;;;;;6.90;1.80;;;19.80;42.70;;;;;;6080947;23;20199;-86
2022/03/27 12:49:05;;;;;;;8.07;1.80;;;19.70;42.60;;;;;;6142828;23;20233;-86
2022/03/27 12:51:34;;;;;;;4.18;1.95;;;19.70;42.20;;;;;;6151231;23;20251;-87
2022/03/27 12:54:07;;;;;;;8.15;2.13;;;19.60;42.20;;;;;;6149597;23;20160;-88
2022/03/27 12:56:55;;;;;;;5.53;1.85;;;19.70;42.00;;;;;;6151737;23;20149;-87
2022/03/27 12:59:36;;;;;;;4.30;1.80;;;19.70;42.40;;;;;;6115371;23;20211;-87
2022/03/27 13:02:25;;;;;;;7.35;2.03;;;19.70;42.30;;;;;;6177840;23;20177;-85
2022/03/27 13:05:05;;;;;;;6.97;1.90;;;19.80;42.30;;;;;;6223751;23;20213;-88
2022/03/27 13:07:53;;;;;;;4.07;1.85;;;19.80;41.90;;;;;;6137859;23;20561;-86
2022/03/27 13:10:22;;;;;;;5.70;1.80;;;19.80;41.90;;;;;;6138027;23;20150;-85